createdAt,value
2023-01-23T00:01:26.388Z,103325.41
2023-01-23T00:04:13.876Z,103329.47
2023-01-23T00:06:58.645Z,103313.63
2023-01-23T00:09:43.606Z,103331.75
2023-01-23T00:12:28.506Z,103330.06
2023-01-23T00:15:15.600Z,103333.34
2023-01-23T00:18:01.007Z,103318.78
2023-01-23T00:20:46.047Z,103316.19
2023-01-23T00:23:31.456Z,103286.59
2023-01-23T00:26:19.834Z,103293.75
2023-01-23T00:29:05.196Z,103302.50
2023-01-23T00:31:50.157Z,103294.66
2023-01-23T00:34:35.596Z,103304.88
2023-01-23T00:37:20.704Z,103297.94
2023-01-23T00:40:06.511Z,103276.34
2023-01-23T00:42:51.712Z,103296.16
2023-01-23T00:45:38.005Z,103290.94
2023-01-23T00:48:23.539Z,103286.53
2023-01-23T00:51:08.675Z,103284.97
2023-01-23T00:53:54.017Z,103284.97
2023-01-23T00:56:39.513Z,103280.59
2023-01-23T00:59:24.798Z,103258.09
2023-01-23T01:02:09.963Z,103272.06
2023-01-23T01:04:55.238Z,103246.16
2023-01-23T01:07:40.379Z,103239.22
2023-01-23T01:10:29.582Z,103227.03
2023-01-23T01:13:17.533Z,103243.72
2023-01-23T01:16:02.790Z,103261.72
2023-01-23T01:18:47.868Z,103266.88
2023-01-23T01:21:32.979Z,103270.66
2023-01-23T01:24:18.172Z,103273.22
2023-01-23T01:27:03.549Z,103277.13
2023-01-23T01:29:48.911Z,103278.69
2023-01-23T01:32:38.716Z,103293.94
2023-01-23T01:35:24.370Z,103304.00
2023-01-23T01:38:09.485Z,103306.56
2023-01-23T01:40:57.249Z,103295.44
2023-01-23T01:43:43.418Z,103303.06
2023-01-23T01:46:30.917Z,103294.50
2023-01-23T01:49:21.178Z,103285.72
2023-01-23T01:52:10.268Z,103305.84
2023-01-23T01:55:02.770Z,103303.28
2023-01-23T01:57:49.972Z,103276.25
2023-01-23T02:00:35.333Z,103317.81
2023-01-23T02:03:20.560Z,103314.41
2023-01-23T02:06:07.061Z,103292.72
2023-01-23T02:09:21.441Z,103313.44
2023-01-23T02:12:07.038Z,103310.81
2023-01-23T02:14:53.217Z,103308.19
2023-01-23T02:17:38.739Z,103307.22
2023-01-23T02:20:26.720Z,103307.31
2023-01-23T02:23:14.807Z,103299.34
2023-01-23T02:26:29.477Z,103317.50
2023-01-23T02:29:15.255Z,103311.69
2023-01-23T02:32:00.212Z,103305.84
2023-01-23T02:34:45.636Z,103284.09
2023-01-23T02:37:34.471Z,103295.28
2023-01-23T02:40:21.740Z,103292.72
2023-01-23T02:43:10.805Z,103295.28
2023-01-23T02:45:56.133Z,103310.81
2023-01-23T02:48:41.248Z,103306.53
2023-01-23T02:51:26.540Z,103294.50
2023-01-23T02:54:11.752Z,103315.16
2023-01-23T02:56:57.234Z,103324.66
2023-01-23T03:00:00.751Z,103331.66
2023-01-23T03:02:50.772Z,103334.31
2023-01-23T03:05:36.007Z,103335.88
2023-01-23T03:08:20.874Z,103343.72
2023-01-23T03:11:05.809Z,103344.72
2023-01-23T03:13:51.129Z,103349.06
2023-01-23T03:16:38.305Z,103348.81
2023-01-23T03:19:26.640Z,103349.81
2023-01-23T03:22:11.817Z,103342.84
2023-01-23T03:24:57.849Z,103330.94
2023-01-23T03:27:43.083Z,103341.50
2023-01-23T03:30:28.247Z,103356.28
2023-01-23T03:33:13.440Z,103360.56
2023-01-23T03:35:58.319Z,103358.13
2023-01-23T03:39:03.041Z,103356.50
2023-01-23T03:41:48.233Z,103367.91
2023-01-23T03:44:33.443Z,103367.06
2023-01-23T03:47:18.745Z,103359.56
2023-01-23T03:50:04.650Z,103370.00
2023-01-23T03:52:49.937Z,103366.72
2023-01-23T03:55:34.870Z,103347.66
2023-01-23T03:58:19.954Z,103355.00
2023-01-23T04:01:09.615Z,103356.00
2023-01-23T04:03:54.521Z,103358.69
2023-01-23T04:06:39.831Z,103357.00
2023-01-23T04:09:27.818Z,103356.00
2023-01-23T04:12:12.848Z,103347.44
2023-01-23T04:14:58.112Z,103356.97
2023-01-23T04:17:43.148Z,103356.19
2023-01-23T04:20:28.397Z,103351.03
2023-01-23T04:23:13.506Z,103366.56
2023-01-23T04:25:58.579Z,103360.56
2023-01-23T04:28:43.774Z,103365.03
2023-01-23T04:31:28.956Z,103363.38
2023-01-23T04:34:14.531Z,103360.88
2023-01-23T04:36:59.594Z,103320.16
2023-01-23T04:39:44.871Z,103343.56
2023-01-23T04:42:30.006Z,103351.47
2023-01-23T04:45:15.067Z,103362.78
2023-01-23T04:48:00.194Z,103347.03
2023-01-23T04:50:45.190Z,103361.88
2023-01-23T04:53:30.661Z,103364.44
2023-01-23T04:56:15.707Z,103345.44
2023-01-23T04:59:00.698Z,103362.84
2023-01-23T05:01:46.083Z,103361.16
2023-01-23T05:04:31.201Z,103367.22
2023-01-23T05:07:16.132Z,103374.91
2023-01-23T05:10:01.348Z,103369.78
2023-01-23T05:12:46.371Z,103341.13
2023-01-23T05:15:31.674Z,103372.34
2023-01-23T05:18:16.945Z,103377.34
2023-01-23T05:21:02.181Z,103375.69
2023-01-23T05:23:47.351Z,103381.84
2023-01-23T05:26:32.966Z,103367.22
2023-01-23T05:29:18.549Z,103368.78
2023-01-23T05:32:03.894Z,103370.56
2023-01-23T05:34:48.873Z,103369.66
2023-01-23T05:37:34.328Z,103361.94
2023-01-23T05:40:20.915Z,103358.44
2023-01-23T05:43:06.699Z,103360.06
2023-01-23T05:45:51.723Z,103358.38
2023-01-23T05:48:36.550Z,103354.97
2023-01-23T05:51:23.291Z,103350.69
2023-01-23T05:54:10.410Z,103353.38
2023-01-23T05:56:56.226Z,103338.81
2023-01-23T05:59:41.415Z,103344.84
2023-01-23T06:02:26.339Z,103335.38
2023-01-23T06:05:11.467Z,103343.88
2023-01-23T06:07:56.508Z,103355.81
2023-01-23T06:10:41.804Z,103353.22
2023-01-23T06:13:28.127Z,103355.88
2023-01-23T06:16:12.934Z,103318.44
2023-01-23T06:18:57.929Z,103343.47
2023-01-23T06:21:42.732Z,103358.13
2023-01-23T06:24:27.746Z,103366.63
2023-01-23T06:27:12.688Z,103360.53
2023-01-23T06:29:57.969Z,103361.31
2023-01-23T06:32:43.262Z,103363.03
2023-01-23T06:35:28.178Z,103371.59
2023-01-23T06:38:13.110Z,103360.16
2023-01-23T06:40:58.065Z,103340.03
2023-01-23T06:43:43.416Z,103365.91
2023-01-23T06:46:28.604Z,103366.88
2023-01-23T06:49:13.598Z,103371.81
2023-01-23T06:51:58.892Z,103370.03
2023-01-23T06:54:43.806Z,103364.91
2023-01-23T06:57:28.862Z,103372.63
2023-01-23T07:00:14.855Z,103369.84
2023-01-23T07:03:03.787Z,103374.84
2023-01-23T07:05:56.422Z,103378.28
2023-01-23T07:08:42.413Z,103382.47
2023-01-23T07:11:27.765Z,103382.47
2023-01-23T07:14:13.037Z,103387.59
2023-01-23T07:16:57.899Z,103373.69
2023-01-23T07:19:42.998Z,103386.53
2023-01-23T07:22:28.335Z,103377.88
2023-01-23T07:25:13.407Z,103383.78
2023-01-23T07:27:58.658Z,103356.13
2023-01-23T07:30:43.669Z,103390.72
2023-01-23T07:33:28.949Z,103388.72
2023-01-23T07:36:14.808Z,103361.91
2023-01-23T07:38:59.899Z,103383.00
2023-01-23T07:41:46.477Z,103391.38
2023-01-23T07:44:31.608Z,103380.09
2023-01-23T07:47:17.078Z,103378.53
2023-01-23T07:50:02.473Z,103384.50
2023-01-23T07:52:47.758Z,103380.47
2023-01-23T07:55:33.176Z,103391.38
2023-01-23T07:58:18.008Z,103381.81
2023-01-23T08:01:11.030Z,103387.81
2023-01-23T08:03:56.273Z,103395.47
2023-01-23T08:06:41.351Z,103398.84
2023-01-23T08:09:26.543Z,103393.69
2023-01-23T08:12:12.783Z,103377.22
2023-01-23T08:14:57.936Z,103378.91
2023-01-23T08:17:43.301Z,103396.41
2023-01-23T08:20:34.781Z,103403.28
2023-01-23T08:23:19.760Z,103404.09
2023-01-23T08:26:06.989Z,103399.00
2023-01-23T08:28:52.264Z,103405.66
2023-01-23T08:31:38.154Z,103398.84
2023-01-23T08:34:24.164Z,103407.44
2023-01-23T08:37:09.346Z,103394.41
2023-01-23T08:39:54.467Z,103410.91
2023-01-23T08:42:39.564Z,103412.66
2023-01-23T08:45:25.517Z,103413.53
2023-01-23T08:48:10.643Z,103414.47
2023-01-23T08:51:01.589Z,103403.53
2023-01-23T08:53:46.670Z,103401.16
2023-01-23T08:56:31.818Z,103406.66
2023-01-23T08:59:16.866Z,103411.09
2023-01-23T09:02:02.588Z,103410.16
2023-01-23T09:04:47.713Z,103409.47
2023-01-23T09:07:36.398Z,103400.88
2023-01-23T09:10:22.137Z,103400.19
2023-01-23T09:13:07.257Z,103404.63
2023-01-23T09:15:52.210Z,103406.53
2023-01-23T09:18:38.076Z,103383.47
2023-01-23T09:21:23.273Z,103407.94
2023-01-23T09:24:08.795Z,103392.59
2023-01-23T09:26:53.973Z,103406.03
2023-01-23T09:29:39.224Z,103416.78
2023-01-23T09:32:24.510Z,103411.69
2023-01-23T09:35:10.544Z,103416.03
2023-01-23T09:38:01.724Z,103416.28
2023-01-23T09:40:53.410Z,103407.75
2023-01-23T09:43:46.096Z,103424.13
2023-01-23T09:46:50.059Z,103423.94
2023-01-23T09:49:53.026Z,103397.19
2023-01-23T09:52:46.224Z,103423.56
2023-01-23T09:55:45.435Z,103429.78
2023-01-23T09:58:37.432Z,103422.94
2023-01-23T10:01:26.226Z,103433.25
2023-01-23T10:04:14.258Z,103425.59
2023-01-23T10:07:14.097Z,103434.34
2023-01-23T10:10:27.093Z,103430.34
2023-01-23T10:13:17.260Z,103438.28
2023-01-23T10:16:23.027Z,103445.31
2023-01-23T10:19:36.393Z,103407.16
2023-01-23T10:22:42.885Z,103446.25
2023-01-23T10:25:33.078Z,103423.88
2023-01-23T10:28:38.919Z,103456.78
2023-01-23T10:31:33.715Z,103458.59
2023-01-23T10:34:39.140Z,103458.69
2023-01-23T10:37:56.449Z,103458.81
2023-01-23T10:40:59.936Z,103451.94
2023-01-23T10:43:48.464Z,103461.44
2023-01-23T10:46:39.446Z,103457.94
2023-01-23T10:49:31.337Z,103458.00
2023-01-23T10:52:41.461Z,103467.44
2023-01-23T10:55:29.909Z,103439.81
2023-01-23T10:58:53.343Z,103459.72
2023-01-23T11:01:40.310Z,103451.94
2023-01-23T11:04:31.161Z,103455.38
2023-01-23T11:07:18.717Z,103442.44
2023-01-23T11:10:10.018Z,103471.94
2023-01-23T11:12:55.727Z,103479.84
2023-01-23T11:15:43.694Z,103473.88
2023-01-23T11:18:34.268Z,103480.81
2023-01-23T11:21:37.564Z,103436.63
2023-01-23T11:24:38.353Z,103482.63
2023-01-23T11:27:31.048Z,103476.72
2023-01-23T11:30:35.988Z,103475.03
2023-01-23T11:33:41.569Z,103464.97
2023-01-23T11:36:45.382Z,103457.34
2023-01-23T11:39:48.029Z,103436.69
2023-01-23T11:42:39.311Z,103452.56
2023-01-23T11:45:43.691Z,103463.81
2023-01-23T11:48:50.542Z,103448.50
2023-01-23T11:52:03.139Z,103429.41
2023-01-23T11:55:22.913Z,103444.38
2023-01-23T11:58:30.013Z,103445.31
2023-01-23T12:01:21.019Z,103416.06
2023-01-23T12:04:39.610Z,103415.34
2023-01-23T12:07:25.789Z,103391.19
2023-01-23T12:10:42.402Z,103391.56
2023-01-23T12:13:42.117Z,103393.44
2023-01-23T12:16:47.981Z,103388.38
2023-01-23T12:19:47.616Z,103360.75
2023-01-23T12:22:56.495Z,103372.91
2023-01-23T12:25:48.285Z,103378.16
2023-01-23T12:28:45.570Z,103386.06
2023-01-23T12:31:33.628Z,103386.97
2023-01-23T12:34:45.169Z,103384.47
2023-01-23T12:38:22.948Z,103375.88
2023-01-23T12:41:37.703Z,103360.31
2023-01-23T12:44:51.597Z,103383.72
2023-01-23T12:47:52.114Z,103386.31
2023-01-23T12:50:47.604Z,103379.50
2023-01-23T12:53:37.971Z,103352.72
2023-01-23T12:56:31.096Z,103376.19
2023-01-23T12:59:34.533Z,103382.19
2023-01-23T13:02:34.301Z,103385.63
2023-01-23T13:05:26.638Z,103387.41
2023-01-23T13:08:28.974Z,103390.00
2023-01-23T13:11:42.785Z,103387.44
2023-01-23T13:14:36.779Z,103393.53
2023-01-23T13:17:38.935Z,103374.44
2023-01-23T13:21:13.025Z,103396.91
2023-01-23T13:24:40.783Z,103396.91
2023-01-23T13:27:51.406Z,103393.50
2023-01-23T13:30:37.973Z,103385.75
2023-01-23T13:33:29.328Z,103383.16
2023-01-23T13:36:21.249Z,103389.22
2023-01-23T13:39:23.362Z,103390.97
2023-01-23T13:42:14.451Z,103395.31
2023-01-23T13:45:24.190Z,103404.00
2023-01-23T14:20:40.017Z,103401.38
2023-01-23T14:23:36.828Z,103404.81
2023-01-23T14:26:30.626Z,103394.47
2023-01-23T14:29:21.740Z,103402.28
2023-01-23T14:32:22.476Z,103395.38
2023-01-23T14:35:31.353Z,103401.41
2023-01-23T14:38:26.911Z,103401.41
2023-01-23T14:41:12.242Z,103408.28
2023-01-23T14:43:59.037Z,103402.31
2023-01-23T14:46:46.591Z,103402.63
2023-01-23T14:49:36.006Z,103391.25
2023-01-23T14:52:28.914Z,103387.75
2023-01-23T14:55:29.236Z,103388.56
2023-01-23T14:58:24.537Z,103388.69
2023-01-23T15:01:10.909Z,103385.19
2023-01-23T15:03:59.042Z,103386.03
2023-01-23T15:06:43.910Z,103380.84
2023-01-23T15:09:41.337Z,103379.03
2023-01-23T15:12:27.436Z,103360.03
2023-01-23T15:15:18.857Z,103385.97
2023-01-23T15:18:15.658Z,103392.91
2023-01-23T15:21:08.359Z,103396.34
2023-01-23T15:24:27.900Z,103396.34
2023-01-23T15:27:24.731Z,103377.31
2023-01-23T15:30:31.618Z,103402.41
2023-01-23T15:33:29.597Z,103393.78
2023-01-23T15:36:29.435Z,103388.56
2023-01-23T15:39:21.066Z,103394.66
2023-01-23T15:42:12.054Z,103408.50
2023-01-23T15:45:01.161Z,103391.13
2023-01-23T15:47:46.490Z,103425.78
2023-01-23T15:50:31.428Z,103427.50
2023-01-23T15:53:16.577Z,103423.19
2023-01-23T15:56:02.337Z,103417.97
2023-01-23T15:58:47.589Z,103420.53
2023-01-23T16:01:32.754Z,103413.63
2023-01-23T16:04:18.434Z,103411.94
2023-01-23T16:07:08.011Z,103384.22
2023-01-23T16:09:55.003Z,103414.50
2023-01-23T16:12:40.491Z,103409.28
2023-01-23T16:15:28.628Z,103404.09
2023-01-23T16:18:13.945Z,103416.25
2023-01-23T16:20:59.311Z,103418.94
2023-01-23T16:23:47.506Z,103392.94
2023-01-23T16:26:33.925Z,103418.94
2023-01-23T16:29:30.907Z,103410.22
2023-01-23T16:32:16.402Z,103434.44
2023-01-23T16:35:01.688Z,103421.50
2023-01-23T16:37:49.796Z,103428.50
2023-01-23T16:40:35.342Z,103426.75
2023-01-23T16:43:22.190Z,103424.16
2023-01-23T16:46:08.504Z,103405.13
2023-01-23T16:48:54.934Z,103421.59
2023-01-23T16:52:01.320Z,103423.31
2023-01-23T16:54:46.719Z,103402.50
2023-01-23T16:57:32.792Z,103420.72
2023-01-23T17:00:33.929Z,103422.47
2023-01-23T17:03:26.185Z,103436.31
2023-01-23T17:06:15.797Z,103423.38
2023-01-23T17:09:00.951Z,103416.44
2023-01-23T17:11:50.975Z,103432.03
2023-01-23T17:14:44.244Z,103430.31
2023-01-23T17:17:35.332Z,103446.69
2023-01-23T17:20:20.427Z,103419.88
2023-01-23T17:23:05.697Z,103434.63
2023-01-23T17:26:00.277Z,103448.50
2023-01-23T17:28:45.778Z,103442.44
2023-01-23T17:31:32.504Z,103450.25
2023-01-23T17:34:26.068Z,103436.38
2023-01-23T17:37:19.762Z,103449.44
2023-01-23T17:40:05.197Z,103452.00
2023-01-23T17:42:50.609Z,103450.25
2023-01-23T17:45:35.972Z,103452.00
2023-01-23T17:48:27.227Z,103449.38
2023-01-23T17:51:17.512Z,103411.25
2023-01-23T17:54:02.838Z,103454.56
2023-01-23T17:56:48.099Z,103449.38
2023-01-23T17:59:33.113Z,103449.38
2023-01-23T18:02:25.752Z,103436.41
2023-01-23T18:05:12.429Z,103443.38
2023-01-23T18:07:57.785Z,103445.94
2023-01-23T18:10:46.095Z,103445.06
2023-01-23T18:14:01.970Z,103444.19
2023-01-23T18:16:48.131Z,103441.63
2023-01-23T18:19:33.587Z,103424.28
2023-01-23T18:22:19.158Z,103441.63
2023-01-23T18:25:04.461Z,103440.75
2023-01-23T18:27:53.653Z,103427.75
2023-01-23T18:30:59.117Z,103450.25
2023-01-23T18:34:00.011Z,103443.28
2023-01-23T18:36:57.619Z,103451.03
2023-01-23T18:39:48.943Z,103446.78
2023-01-23T18:43:11.055Z,103455.44
2023-01-23T18:45:56.739Z,103451.09
2023-01-23T18:48:43.894Z,103448.56
2023-01-23T18:51:45.368Z,103461.41
2023-01-23T18:54:54.663Z,103465.69
2023-01-23T18:58:23.169Z,103470.00
2023-01-23T19:01:24.715Z,103482.97
2023-01-23T19:04:15.283Z,103469.19
2023-01-23T19:07:00.570Z,103476.94
2023-01-23T19:09:47.330Z,103479.59
2023-01-23T19:13:07.539Z,103486.47
2023-01-23T19:16:07.173Z,103496.81
2023-01-23T19:19:15.229Z,103487.16
2023-01-23T19:22:04.838Z,103500.97
2023-01-23T19:24:50.206Z,103498.34
2023-01-23T19:27:35.417Z,103496.53
2023-01-23T19:30:22.143Z,103503.38
2023-01-23T19:33:14.543Z,103502.53
2023-01-23T19:35:59.817Z,103490.34
2023-01-23T19:38:45.114Z,103486.84
2023-01-23T19:41:39.107Z,103496.34
2023-01-23T19:44:24.733Z,103469.53
2023-01-23T19:47:09.751Z,103491.16
2023-01-23T19:49:54.951Z,103500.66
2023-01-23T19:52:40.045Z,103490.31
2023-01-23T19:55:38.159Z,103501.50
2023-01-23T19:58:23.284Z,103509.34
2023-01-23T20:01:29.004Z,103500.16
2023-01-23T20:04:20.751Z,103508.72
2023-01-23T20:07:06.347Z,103508.66
2023-01-23T20:09:51.206Z,103504.25
2023-01-23T20:12:41.409Z,103487.81
2023-01-23T20:15:27.544Z,103500.84
2023-01-23T20:18:12.509Z,103507.75
2023-01-23T20:20:58.780Z,103506.03
2023-01-23T20:23:44.648Z,103510.31
2023-01-23T20:26:29.761Z,103512.97
2023-01-23T20:29:15.114Z,103507.78
2023-01-23T20:32:00.229Z,103517.31
2023-01-23T20:34:45.093Z,103503.50
2023-01-23T20:37:30.223Z,103510.38
2023-01-23T20:40:15.730Z,103507.81
2023-01-23T20:43:00.740Z,103500.00
2023-01-23T20:45:46.943Z,103502.63
2023-01-23T20:48:40.574Z,103503.53
2023-01-23T20:51:26.368Z,103501.81
2023-01-23T20:54:11.366Z,103509.53
2023-01-23T20:56:57.279Z,103515.63
2023-01-23T20:59:42.637Z,103518.22
2023-01-23T21:02:30.295Z,103517.34
2023-01-23T21:05:15.354Z,103517.38
2023-01-23T21:08:00.297Z,103515.66
2023-01-23T21:10:45.164Z,103524.34
2023-01-23T21:13:30.052Z,103506.13
2023-01-23T21:16:16.348Z,103511.31
2023-01-23T21:19:01.988Z,103507.84
2023-01-23T21:21:47.058Z,103509.63
2023-01-23T21:24:36.415Z,103506.16
2023-01-23T21:27:23.456Z,103505.31
2023-01-23T21:30:10.317Z,103500.91
2023-01-23T21:32:55.496Z,103500.91
2023-01-23T21:35:40.472Z,103500.84
2023-01-23T21:38:25.616Z,103526.03
2023-01-23T21:41:10.749Z,103519.09
2023-01-23T21:43:56.103Z,103524.28
2023-01-23T21:46:41.500Z,103519.06
2023-01-23T21:49:26.622Z,103501.78
2023-01-23T21:52:12.030Z,103504.34
2023-01-23T21:54:56.998Z,103528.63
2023-01-23T21:57:42.095Z,103525.19
2023-01-23T22:00:45.841Z,103531.25
2023-01-23T22:03:35.631Z,103526.84
2023-01-23T22:06:20.869Z,103533.75
2023-01-23T22:09:07.447Z,103532.03
2023-01-23T22:11:53.892Z,103528.63
2023-01-23T22:14:39.266Z,103516.50
2023-01-23T22:17:24.281Z,103528.63
2023-01-23T22:20:10.526Z,103535.50
2023-01-23T22:22:55.332Z,103538.94
2023-01-23T22:25:40.558Z,103532.88
2023-01-23T22:28:25.751Z,103525.94
2023-01-23T22:31:13.664Z,103532.03
2023-01-23T22:33:58.867Z,103526.78
2023-01-23T22:36:43.711Z,103527.69
2023-01-23T22:39:28.727Z,103515.63
2023-01-23T22:42:14.053Z,103508.69
2023-01-23T22:44:59.167Z,103526.84
2023-01-23T22:47:44.510Z,103528.53
2023-01-23T22:50:29.577Z,103532.84
2023-01-23T22:53:14.845Z,103533.75
2023-01-23T22:56:05.868Z,103525.16
2023-01-23T22:58:53.121Z,103526.00
2023-01-23T23:01:38.297Z,103517.41
2023-01-23T23:04:23.445Z,103503.50
2023-01-23T23:07:08.282Z,103523.44
2023-01-23T23:09:53.560Z,103519.09
2023-01-23T23:12:38.759Z,103526.00
2023-01-23T23:15:23.710Z,103519.91
2023-01-23T23:18:08.778Z,103520.78
2023-01-23T23:20:53.786Z,103512.97
2023-01-23T23:23:39.322Z,103530.25
2023-01-23T23:26:26.487Z,103526.78
2023-01-23T23:29:11.760Z,103526.78
2023-01-23T23:31:57.247Z,103524.19
2023-01-23T23:34:44.495Z,103513.84
2023-01-23T23:37:29.817Z,103520.81
2023-01-23T23:40:15.176Z,103520.75
2023-01-23T23:43:00.435Z,103510.38
2023-01-23T23:46:00.406Z,103512.16
2023-01-23T23:48:47.841Z,103511.34
2023-01-23T23:51:33.085Z,103500.97
2023-01-23T23:54:18.175Z,103507.91
2023-01-23T23:57:03.445Z,103506.16
2023-01-23T23:59:48.637Z,103515.69
